createdAt,value
2022-07-28T00:02:35.786Z,99.90
2022-07-28T00:07:38.473Z,99.90
2022-07-28T00:12:40.996Z,99.90
2022-07-28T00:17:43.689Z,99.90
2022-07-28T00:22:46.121Z,99.90
2022-07-28T00:27:48.656Z,99.90
2022-07-28T00:32:51.189Z,99.90
2022-07-28T00:37:53.638Z,99.90
2022-07-28T00:42:56.812Z,99.90
2022-07-28T00:47:59.225Z,99.90
2022-07-28T00:53:01.827Z,99.90
2022-07-28T00:58:04.337Z,99.90
2022-07-28T01:03:07.532Z,99.90
2022-07-28T01:08:21.398Z,99.90
2022-07-28T01:13:44.073Z,99.90
2022-07-28T01:19:14.612Z,99.90
2022-07-28T01:24:24.174Z,99.90
2022-07-28T01:30:02.799Z,99.90
2022-07-28T01:35:24.909Z,99.90
2022-07-28T01:40:32.620Z,99.90
2022-07-28T01:45:38.137Z,99.90
2022-07-28T01:50:42.608Z,99.90
2022-07-28T01:55:46.334Z,99.90
2022-07-28T02:00:50.835Z,99.90
2022-07-28T02:05:55.345Z,99.90
2022-07-28T02:11:18.843Z,99.90
2022-07-28T02:16:24.292Z,99.90
2022-07-28T02:21:30.024Z,99.90
2022-07-28T02:26:38.123Z,99.90
2022-07-28T02:32:23.984Z,99.90
2022-07-28T02:37:37.869Z,99.90
2022-07-28T02:42:41.286Z,99.90
2022-07-28T02:47:51.829Z,99.90
2022-07-28T02:52:58.667Z,99.90
2022-07-28T02:58:02.128Z,99.90
2022-07-28T03:03:09.889Z,99.90
2022-07-28T03:08:12.535Z,99.90
2022-07-28T03:13:14.967Z,99.90
2022-07-28T03:18:17.383Z,99.90
2022-07-28T03:23:24.218Z,99.90
2022-07-28T03:28:28.517Z,99.90
2022-07-28T03:33:31.707Z,99.90
2022-07-28T03:38:43.979Z,99.90
2022-07-28T03:43:47.761Z,99.90
2022-07-28T03:48:50.232Z,99.90
2022-07-28T03:53:52.772Z,99.90
2022-07-28T03:58:55.289Z,99.90
2022-07-28T04:03:57.980Z,99.90
2022-07-28T04:09:00.598Z,99.90
2022-07-28T04:14:03.020Z,99.90
2022-07-28T04:19:05.521Z,99.90
2022-07-28T04:24:10.820Z,99.90
2022-07-28T04:29:13.335Z,99.90
2022-07-28T04:34:16.443Z,99.90
2022-07-28T04:39:19.263Z,99.90
2022-07-28T04:44:21.721Z,99.90
2022-07-28T04:49:24.163Z,99.90
2022-07-28T04:54:26.923Z,99.90
2022-07-28T04:59:29.568Z,99.90
2022-07-28T05:04:34.696Z,99.90
2022-07-28T05:09:37.728Z,99.90
2022-07-28T05:14:40.172Z,99.90
2022-07-28T05:19:42.855Z,99.90
2022-07-28T05:24:45.747Z,99.90
2022-07-28T05:29:48.321Z,99.90
2022-07-28T05:34:50.827Z,99.90
2022-07-28T05:39:53.306Z,99.90
2022-07-28T05:44:55.777Z,99.90
2022-07-28T05:50:01.769Z,99.90
2022-07-28T05:55:05.655Z,99.90
2022-07-28T06:00:14.155Z,99.90
2022-07-28T06:05:17.997Z,99.10
2022-07-28T06:10:23.810Z,98.50
2022-07-28T06:15:28.039Z,98.40
2022-07-28T06:20:30.488Z,97.10
2022-07-28T06:25:33.267Z,97.90
2022-07-28T06:30:35.722Z,98.40
2022-07-28T06:35:46.534Z,97.30
2022-07-28T06:40:52.616Z,97.10
2022-07-28T06:45:55.641Z,96.20
2022-07-28T06:50:59.715Z,95.80
2022-07-28T06:56:04.134Z,93.50
2022-07-28T07:01:07.973Z,94.90
2022-07-28T07:06:11.221Z,93.60
2022-07-28T07:11:13.974Z,94.00
2022-07-28T07:16:18.748Z,93.30
2022-07-28T07:21:21.372Z,95.10
2022-07-28T07:26:25.655Z,93.60
2022-07-28T07:31:28.188Z,91.80
2022-07-28T07:36:30.704Z,90.80
2022-07-28T07:41:33.158Z,91.40
2022-07-28T07:46:39.620Z,91.40
2022-07-28T07:51:42.098Z,92.60
2022-07-28T07:56:44.544Z,92.40
2022-07-28T08:01:50.830Z,91.60
2022-07-28T08:06:53.931Z,91.60
2022-07-28T08:11:57.333Z,90.10
2022-07-28T08:16:59.789Z,87.40
2022-07-28T08:22:02.559Z,87.10
2022-07-28T08:27:05.779Z,88.50
2022-07-28T08:32:08.351Z,90.10
2022-07-28T08:37:10.779Z,88.80
2022-07-28T08:42:20.526Z,85.10
2022-07-28T08:47:23.469Z,87.30
2022-07-28T08:52:29.644Z,87.30
2022-07-28T08:57:35.460Z,82.20
2022-07-28T09:02:41.381Z,86.60
2022-07-28T09:07:45.672Z,85.40
2022-07-28T09:12:48.145Z,81.20
2022-07-28T09:17:50.932Z,82.90
2022-07-28T09:22:57.599Z,78.20
2022-07-28T09:28:10.173Z,79.30
2022-07-28T09:33:41.800Z,79.80
2022-07-28T09:38:42.831Z,77.60
2022-07-28T09:43:49.775Z,79.80
2022-07-28T09:49:01.669Z,81.00
2022-07-28T09:54:16.279Z,81.70
2022-07-28T09:59:19.733Z,78.00
2022-07-28T10:04:31.711Z,76.80
2022-07-28T10:09:34.612Z,78.70
2022-07-28T10:14:37.299Z,81.40
2022-07-28T10:19:40.811Z,76.20
2022-07-28T10:24:46.499Z,79.10
2022-07-28T10:30:00.563Z,79.90
2022-07-28T10:35:06.563Z,78.40
2022-07-28T10:40:11.460Z,78.00
2022-07-28T10:45:14.117Z,77.20
2022-07-28T10:50:17.120Z,77.80
2022-07-28T10:55:38.490Z,76.70
2022-07-28T11:01:05.512Z,78.90
2022-07-28T11:06:37.031Z,78.60
2022-07-28T11:11:53.910Z,77.20
2022-07-28T11:17:05.606Z,74.30
2022-07-28T11:22:18.705Z,77.50
2022-07-28T11:27:42.704Z,77.40
2022-07-28T11:32:51.033Z,75.40
2022-07-28T11:38:02.863Z,74.70
2022-07-28T11:43:35.817Z,73.40
2022-07-28T11:48:42.851Z,72.30
2022-07-28T11:53:48.060Z,71.80
2022-07-28T11:59:18.135Z,72.30
2022-07-28T12:04:26.352Z,71.90
2022-07-28T12:09:41.715Z,70.20
2022-07-28T12:14:46.321Z,71.10
2022-07-28T12:19:48.869Z,70.00
2022-07-28T12:24:57.900Z,69.80
2022-07-28T12:30:02.119Z,70.20
2022-07-28T12:35:05.336Z,72.20
2022-07-28T12:40:10.631Z,70.30
2022-07-28T12:45:13.662Z,71.40
2022-07-28T12:50:17.644Z,70.40
2022-07-28T12:55:25.739Z,67.60
2022-07-28T13:00:34.295Z,69.80
2022-07-28T13:06:02.828Z,71.40
2022-07-28T13:11:09.822Z,68.20
2022-07-28T13:16:20.520Z,69.20
2022-07-28T13:21:58.509Z,68.50
2022-07-28T13:27:04.001Z,67.70
2022-07-28T13:32:07.001Z,66.20
2022-07-28T13:37:10.147Z,70.00
2022-07-28T13:42:13.301Z,68.80
2022-07-28T13:47:16.703Z,66.40
2022-07-28T13:52:33.241Z,66.20
2022-07-28T13:57:37.765Z,65.90
2022-07-28T14:02:48.843Z,66.10
2022-07-28T14:07:51.498Z,64.70
2022-07-28T14:12:54.119Z,66.30
2022-07-28T14:17:56.686Z,65.80
2022-07-28T14:22:59.243Z,66.50
2022-07-28T14:28:01.698Z,66.20
2022-07-28T14:33:06.374Z,66.70
2022-07-28T14:43:32.987Z,64.80
2022-07-28T14:48:35.481Z,63.90
2022-07-28T14:53:43.210Z,65.00
2022-07-28T14:58:47.815Z,64.40
2022-07-28T15:03:50.242Z,64.60
2022-07-28T15:08:55.628Z,64.60
2022-07-28T15:14:00.695Z,65.00
2022-07-28T15:19:03.701Z,66.30
2022-07-28T15:24:08.658Z,68.80
2022-07-28T15:29:14.441Z,70.10
2022-07-28T15:34:17.784Z,69.20
2022-07-28T15:39:21.607Z,70.70
2022-07-28T15:44:26.388Z,70.90
2022-07-28T15:49:29.537Z,76.20
2022-07-28T15:54:33.003Z,71.60
2022-07-28T15:59:49.231Z,76.50
2022-07-28T16:04:55.559Z,70.50
2022-07-28T16:10:00.505Z,70.70
2022-07-28T16:15:04.574Z,70.50
2022-07-28T16:20:10.149Z,68.30
2022-07-28T16:25:20.590Z,68.30
2022-07-28T16:30:23.481Z,70.00
2022-07-28T16:35:26.257Z,69.10
2022-07-28T16:40:30.799Z,69.40
2022-07-28T16:45:35.440Z,69.40
2022-07-28T16:50:38.507Z,69.10
2022-07-28T16:55:42.312Z,70.50
2022-07-28T17:00:46.219Z,69.50
2022-07-28T17:05:49.549Z,70.30
2022-07-28T17:10:55.067Z,70.30
2022-07-28T17:15:59.809Z,70.30
2022-07-28T17:21:02.313Z,70.30
2022-07-28T17:31:28.625Z,71.00
2022-07-28T17:36:37.130Z,71.70
2022-07-28T17:41:41.147Z,70.80
2022-07-28T17:46:45.496Z,71.40
2022-07-28T17:51:48.518Z,71.60
2022-07-28T17:56:54.150Z,71.30
2022-07-28T18:01:56.660Z,71.80
2022-07-28T18:06:59.146Z,73.00
2022-07-28T18:12:01.558Z,72.60
2022-07-28T18:17:04.073Z,73.00
2022-07-28T18:22:06.524Z,74.10
2022-07-28T18:27:09.091Z,74.30
2022-07-28T18:32:12.367Z,75.20
2022-07-28T18:37:15.041Z,77.30
2022-07-28T18:42:17.976Z,80.30
2022-07-28T18:47:20.975Z,82.50
2022-07-28T18:52:24.443Z,84.60
2022-07-28T18:57:26.948Z,86.80
2022-07-28T19:02:29.486Z,87.50
2022-07-28T19:07:32.425Z,89.00
2022-07-28T19:12:34.938Z,89.40
2022-07-28T19:17:39.919Z,90.00
2022-07-28T19:22:42.493Z,90.90
2022-07-28T19:27:45.082Z,90.50
2022-07-28T19:32:47.571Z,90.20
2022-07-28T19:37:50.844Z,90.00
2022-07-28T19:42:53.889Z,88.00
2022-07-28T19:47:56.345Z,86.90
2022-07-28T19:52:59.163Z,86.70
2022-07-28T19:58:04.097Z,88.50
2022-07-28T20:03:59.738Z,88.10
2022-07-28T20:08:31.256Z,89.30
2022-07-28T20:13:34.391Z,89.20
2022-07-28T20:18:37.043Z,88.50
2022-07-28T20:23:41.022Z,88.20
2022-07-28T20:28:44.203Z,88.20
2022-07-28T20:33:47.454Z,88.30
2022-07-28T20:38:49.959Z,88.80
2022-07-28T20:44:18.193Z,88.30
2022-07-28T20:49:15.439Z,89.20
2022-07-28T20:54:18.912Z,90.10
2022-07-28T20:59:27.456Z,89.30
2022-07-28T21:04:30.550Z,89.10
2022-07-28T21:09:33.347Z,89.50
2022-07-28T21:14:35.945Z,90.00
2022-07-28T21:19:38.318Z,90.20
2022-07-28T21:24:40.702Z,90.50
2022-07-28T21:29:43.177Z,90.50
2022-07-28T21:34:45.835Z,90.80
2022-07-28T21:39:48.329Z,91.10
2022-07-28T21:44:51.080Z,91.30
2022-07-28T21:49:56.269Z,91.40
2022-07-28T21:54:58.769Z,91.60
2022-07-28T22:00:01.671Z,91.90
2022-07-28T22:05:04.773Z,92.10
2022-07-28T22:10:07.763Z,92.60
2022-07-28T22:15:10.658Z,92.60
2022-07-28T22:20:13.181Z,92.60
2022-07-28T22:25:15.650Z,92.90
2022-07-28T22:30:18.172Z,93.10
2022-07-28T22:35:20.683Z,93.40
2022-07-28T22:40:23.134Z,93.60
2022-07-28T22:45:51.003Z,93.70
2022-07-28T22:50:48.610Z,94.10
2022-07-28T22:55:51.134Z,94.40
2022-07-28T23:00:53.805Z,94.40
2022-07-28T23:06:00.765Z,94.80
2022-07-28T23:11:03.339Z,94.70
2022-07-28T23:16:09.064Z,94.90
2022-07-28T23:21:12.472Z,95.40
2022-07-28T23:26:15.000Z,95.20
2022-07-28T23:31:17.468Z,95.50
2022-07-28T23:36:26.318Z,95.70
2022-07-28T23:41:30.149Z,96.10
2022-07-28T23:46:33.076Z,97.20
2022-07-28T23:51:47.487Z,96.80
2022-07-28T23:56:52.737Z,97.40
